sensor_id;sensor_type;location;lat;lon;timestamp;pressure;altitude;pressure_sealevel;temperature;humidity
58295;BME280;45705;55.592;37.460;2023-08-20T00:02:13;99573.31;;;20.71;100.00
58295;BME280;45705;55.592;37.460;2023-08-20T00:04:39;99567.72;;;20.67;100.00
58295;BME280;45705;55.592;37.460;2023-08-20T00:07:05;99563.28;;;20.43;100.00
58295;BME280;45705;55.592;37.460;2023-08-20T00:09:33;99560.16;;;20.25;100.00
58295;BME280;45705;55.592;37.460;2023-08-20T00:11:58;99568.44;;;20.25;100.00
58295;BME280;45705;55.592;37.460;2023-08-20T00:15:00;99564.97;;;20.09;100.00
58295;BME280;45705;55.592;37.460;2023-08-20T00:17:35;99558.06;;;20.18;100.00
58295;BME280;45705;55.592;37.460;2023-08-20T00:20:04;99568.72;;;20.39;100.00
58295;BME280;45705;55.592;37.460;2023-08-20T00:22:35;99561.63;;;20.38;100.00
58295;BME280;45705;55.592;37.460;2023-08-20T00:25:01;99556.25;;;20.45;100.00
58295;BME280;45705;55.592;37.460;2023-08-20T00:27:29;99557.41;;;20.44;100.00
58295;BME280;45705;55.592;37.460;2023-08-20T00:29:55;99554.19;;;20.62;100.00
58295;BME280;45705;55.592;37.460;2023-08-20T00:32:20;99536.03;;;20.61;100.00
58295;BME280;45705;55.592;37.460;2023-08-20T00:34:47;99548.38;;;20.67;100.00
58295;BME280;45705;55.592;37.460;2023-08-20T00:37:13;99550.09;;;20.75;100.00
58295;BME280;45705;55.592;37.460;2023-08-20T00:39:39;99538.91;;;20.49;100.00
58295;BME280;45705;55.592;37.460;2023-08-20T00:42:05;99525.53;;;20.51;100.00
58295;BME280;45705;55.592;37.460;2023-08-20T00:44:31;99531.13;;;20.54;100.00
58295;BME280;45705;55.592;37.460;2023-08-20T00:46:58;99522.16;;;20.38;100.00
58295;BME280;45705;55.592;37.460;2023-08-20T00:49:26;99525.13;;;20.29;100.00
58295;BME280;45705;55.592;37.460;2023-08-20T00:51:53;99519.75;;;20.36;100.00
58295;BME280;45705;55.592;37.460;2023-08-20T00:54:20;99519.16;;;20.46;100.00
58295;BME280;45705;55.592;37.460;2023-08-20T00:56:48;99518.88;;;20.52;100.00
58295;BME280;45705;55.592;37.460;2023-08-20T00:59:15;99524.81;;;20.54;100.00
58295;BME280;45705;55.592;37.460;2023-08-20T01:01:41;99516.81;;;20.49;100.00
58295;BME280;45705;55.592;37.460;2023-08-20T01:04:07;99508.97;;;20.51;100.00
58295;BME280;45705;55.592;37.460;2023-08-20T01:12:22;99523.53;;;20.67;100.00
58295;BME280;45705;55.592;37.460;2023-08-20T01:14:50;99526.72;;;20.69;100.00
58295;BME280;45705;55.592;37.460;2023-08-20T01:17:16;99528.44;;;20.77;100.00
58295;BME280;45705;55.592;37.460;2023-08-20T01:19:42;99522.78;;;20.70;100.00
58295;BME280;45705;55.592;37.460;2023-08-20T01:25:04;99521.63;;;20.52;100.00
58295;BME280;45705;55.592;37.460;2023-08-20T01:27:56;99520.03;;;20.31;100.00
58295;BME280;45705;55.592;37.460;2023-08-20T01:30:26;99534.44;;;20.21;100.00
58295;BME280;45705;55.592;37.460;2023-08-20T01:32:53;99515.03;;;19.98;100.00
58295;BME280;45705;55.592;37.460;2023-08-20T01:35:19;99518.41;;;20.07;100.00
58295;BME280;45705;55.592;37.460;2023-08-20T01:37:45;99510.56;;;20.09;100.00
58295;BME280;45705;55.592;37.460;2023-08-20T01:40:11;99516.34;;;20.04;100.00
58295;BME280;45705;55.592;37.460;2023-08-20T01:42:38;99514.25;;;19.97;100.00
58295;BME280;45705;55.592;37.460;2023-08-20T01:45:05;99508.38;;;19.63;100.00
58295;BME280;45705;55.592;37.460;2023-08-20T01:47:33;99517.16;;;19.69;100.00
58295;BME280;45705;55.592;37.460;2023-08-20T01:49:59;99532.69;;;19.74;100.00
58295;BME280;45705;55.592;37.460;2023-08-20T01:52:25;99534.25;;;19.75;100.00
58295;BME280;45705;55.592;37.460;2023-08-20T01:54:52;99532.28;;;19.75;100.00
58295;BME280;45705;55.592;37.460;2023-08-20T01:57:18;99534.78;;;19.80;100.00
58295;BME280;45705;55.592;37.460;2023-08-20T01:59:45;99533.56;;;19.78;100.00
58295;BME280;45705;55.592;37.460;2023-08-20T02:02:10;99544.59;;;19.62;100.00
58295;BME280;45705;55.592;37.460;2023-08-20T02:04:36;99539.59;;;19.67;100.00
58295;BME280;45705;55.592;37.460;2023-08-20T02:07:02;99532.81;;;19.81;100.00
58295;BME280;45705;55.592;37.460;2023-08-20T02:09:28;99535.75;;;19.88;100.00
58295;BME280;45705;55.592;37.460;2023-08-20T02:11:53;99523.81;;;19.84;100.00
58295;BME280;45705;55.592;37.460;2023-08-20T02:14:19;99523.56;;;19.89;100.00
58295;BME280;45705;55.592;37.460;2023-08-20T02:16:46;99516.84;;;19.90;100.00
58295;BME280;45705;55.592;37.460;2023-08-20T02:19:14;99517.44;;;19.99;100.00
58295;BME280;45705;55.592;37.460;2023-08-20T02:21:40;99523.31;;;19.98;100.00
58295;BME280;45705;55.592;37.460;2023-08-20T02:24:06;99518.91;;;19.93;100.00
58295;BME280;45705;55.592;37.460;2023-08-20T02:26:32;99523.38;;;19.82;100.00
58295;BME280;45705;55.592;37.460;2023-08-20T02:28:58;99519.41;;;19.79;100.00
58295;BME280;45705;55.592;37.460;2023-08-20T02:31:24;99527.38;;;19.84;100.00
58295;BME280;45705;55.592;37.460;2023-08-20T02:33:50;99528.03;;;19.78;100.00
58295;BME280;45705;55.592;37.460;2023-08-20T02:36:16;99534.59;;;19.89;100.00
58295;BME280;45705;55.592;37.460;2023-08-20T02:38:41;99530.56;;;19.86;100.00
58295;BME280;45705;55.592;37.460;2023-08-20T02:41:08;99536.03;;;20.02;100.00
58295;BME280;45705;55.592;37.460;2023-08-20T02:43:34;99539.63;;;20.03;100.00
58295;BME280;45705;55.592;37.460;2023-08-20T02:46:01;99537.13;;;20.17;100.00
58295;BME280;45705;55.592;37.460;2023-08-20T02:48:29;99545.06;;;20.19;100.00
58295;BME280;45705;55.592;37.460;2023-08-20T02:50:54;99543.75;;;20.13;100.00
58295;BME280;45705;55.592;37.460;2023-08-20T02:53:21;99534.44;;;20.21;100.00
58295;BME280;45705;55.592;37.460;2023-08-20T02:55:47;99531.66;;;20.40;100.00
58295;BME280;45705;55.592;37.460;2023-08-20T02:58:13;99528.44;;;20.58;100.00
58295;BME280;45705;55.592;37.460;2023-08-20T03:00:39;99539.97;;;20.60;100.00
58295;BME280;45705;55.592;37.460;2023-08-20T03:03:10;99547.41;;;20.79;100.00
58295;BME280;45705;55.592;37.460;2023-08-20T03:05:38;99542.69;;;20.79;100.00
58295;BME280;45705;55.592;37.460;2023-08-20T03:08:04;99530.28;;;20.93;100.00
58295;BME280;45705;55.592;37.460;2023-08-20T03:10:31;99540.72;;;21.03;100.00
58295;BME280;45705;55.592;37.460;2023-08-20T03:13:01;99547.09;;;21.07;100.00
58295;BME280;45705;55.592;37.460;2023-08-20T03:15:30;99564.06;;;20.82;100.00
58295;BME280;45705;55.592;37.460;2023-08-20T03:17:56;99570.59;;;20.74;100.00
58295;BME280;45705;55.592;37.460;2023-08-20T03:20:22;99568.22;;;20.53;100.00
58295;BME280;45705;55.592;37.460;2023-08-20T03:22:48;99563.94;;;20.36;100.00
58295;BME280;45705;55.592;37.460;2023-08-20T03:25:14;99561.91;;;20.33;100.00
58295;BME280;45705;55.592;37.460;2023-08-20T03:27:41;99566.78;;;20.20;100.00
58295;BME280;45705;55.592;37.460;2023-08-20T03:30:08;99570.94;;;20.30;100.00
58295;BME280;45705;55.592;37.460;2023-08-20T03:32:34;99559.13;;;20.33;100.00
58295;BME280;45705;55.592;37.460;2023-08-20T03:35:00;99549.56;;;20.08;100.00
58295;BME280;45705;55.592;37.460;2023-08-20T03:37:29;99552.59;;;20.22;100.00
58295;BME280;45705;55.592;37.460;2023-08-20T03:39:56;99561.69;;;20.03;100.00
58295;BME280;45705;55.592;37.460;2023-08-20T03:42:22;99568.88;;;20.08;100.00
58295;BME280;45705;55.592;37.460;2023-08-20T03:44:48;99563.19;;;20.00;100.00
58295;BME280;45705;55.592;37.460;2023-08-20T03:47:13;99530.50;;;19.83;100.00
58295;BME280;45705;55.592;37.460;2023-08-20T03:49:40;99523.09;;;19.87;100.00
58295;BME280;45705;55.592;37.460;2023-08-20T03:52:06;99520.56;;;19.78;100.00
58295;BME280;45705;55.592;37.460;2023-08-20T03:54:33;99510.75;;;19.81;100.00
58295;BME280;45705;55.592;37.460;2023-08-20T03:56:59;99502.34;;;19.93;100.00
58295;BME280;45705;55.592;37.460;2023-08-20T03:59:24;99513.22;;;20.05;100.00
58295;BME280;45705;55.592;37.460;2023-08-20T04:01:50;99506.56;;;20.06;100.00
58295;BME280;45705;55.592;37.460;2023-08-20T04:04:16;99506.47;;;19.67;100.00
58295;BME280;45705;55.592;37.460;2023-08-20T04:06:42;99526.63;;;19.52;100.00
58295;BME280;45705;55.592;37.460;2023-08-20T04:09:08;99539.28;;;19.53;100.00
58295;BME280;45705;55.592;37.460;2023-08-20T04:11:35;99530.72;;;19.58;100.00
58295;BME280;45705;55.592;37.460;2023-08-20T04:14:03;99520.47;;;19.75;100.00
58295;BME280;45705;55.592;37.460;2023-08-20T04:16:29;99509.75;;;19.38;100.00
58295;BME280;45705;55.592;37.460;2023-08-20T04:18:55;99493.44;;;19.13;100.00
58295;BME280;45705;55.592;37.460;2023-08-20T04:21:22;99493.97;;;19.03;100.00
58295;BME280;45705;55.592;37.460;2023-08-20T04:23:48;99495.22;;;18.89;100.00
58295;BME280;45705;55.592;37.460;2023-08-20T04:26:14;99485.25;;;18.69;100.00
58295;BME280;45705;55.592;37.460;2023-08-20T04:28:40;99486.84;;;18.70;100.00
58295;BME280;45705;55.592;37.460;2023-08-20T04:31:06;99491.66;;;18.73;100.00
58295;BME280;45705;55.592;37.460;2023-08-20T04:33:45;99491.47;;;18.98;100.00
58295;BME280;45705;55.592;37.460;2023-08-20T04:36:14;99500.75;;;18.89;100.00
58295;BME280;45705;55.592;37.460;2023-08-20T04:38:40;99490.88;;;19.04;100.00
58295;BME280;45705;55.592;37.460;2023-08-20T04:41:05;99492.38;;;18.86;100.00
58295;BME280;45705;55.592;37.460;2023-08-20T04:43:31;99497.53;;;18.87;100.00
58295;BME280;45705;55.592;37.460;2023-08-20T04:46:00;99484.56;;;19.04;100.00
58295;BME280;45705;55.592;37.460;2023-08-20T04:48:28;99481.19;;;18.95;100.00
58295;BME280;45705;55.592;37.460;2023-08-20T04:50:54;99472.31;;;18.85;100.00
58295;BME280;45705;55.592;37.460;2023-08-20T04:53:19;99466.56;;;18.78;100.00
58295;BME280;45705;55.592;37.460;2023-08-20T04:55:47;99472.03;;;18.75;100.00
58295;BME280;45705;55.592;37.460;2023-08-20T04:58:13;99486.16;;;18.89;100.00
58295;BME280;45705;55.592;37.460;2023-08-20T05:00:39;99481.38;;;19.02;100.00
58295;BME280;45705;55.592;37.460;2023-08-20T05:03:08;99470.41;;;19.05;100.00
58295;BME280;45705;55.592;37.460;2023-08-20T05:05:34;99473.09;;;19.18;100.00
58295;BME280;45705;55.592;37.460;2023-08-20T05:08:01;99471.16;;;19.02;100.00
58295;BME280;45705;55.592;37.460;2023-08-20T05:10:28;99482.94;;;19.19;100.00
58295;BME280;45705;55.592;37.460;2023-08-20T05:12:53;99469.28;;;19.42;100.00
58295;BME280;45705;55.592;37.460;2023-08-20T05:15:19;99475.91;;;19.57;100.00
58295;BME280;45705;55.592;37.460;2023-08-20T05:17:45;99469.41;;;19.30;100.00
58295;BME280;45705;55.592;37.460;2023-08-20T05:20:12;99456.66;;;19.41;100.00
58295;BME280;45705;55.592;37.460;2023-08-20T05:22:38;99449.28;;;19.10;100.00
58295;BME280;45705;55.592;37.460;2023-08-20T05:25:04;99453.50;;;19.23;100.00
58295;BME280;45705;55.592;37.460;2023-08-20T05:27:30;99458.69;;;19.44;100.00
58295;BME280;45705;55.592;37.460;2023-08-20T05:29:57;99447.66;;;19.79;100.00
58295;BME280;45705;55.592;37.460;2023-08-20T05:32:23;99443.03;;;20.26;100.00
58295;BME280;45705;55.592;37.460;2023-08-20T05:34:49;99437.84;;;20.44;100.00
58295;BME280;45705;55.592;37.460;2023-08-20T05:37:15;99437.28;;;20.58;100.00
58295;BME280;45705;55.592;37.460;2023-08-20T05:39:42;99439.03;;;20.66;100.00
58295;BME280;45705;55.592;37.460;2023-08-20T05:42:09;99440.69;;;20.71;100.00
58295;BME280;45705;55.592;37.460;2023-08-20T05:44:36;99436.94;;;21.36;100.00
58295;BME280;45705;55.592;37.460;2023-08-20T05:47:03;99428.94;;;21.57;100.00
58295;BME280;45705;55.592;37.460;2023-08-20T05:49:31;99422.97;;;21.55;100.00
58295;BME280;45705;55.592;37.460;2023-08-20T05:51:57;99419.91;;;21.60;100.00
58295;BME280;45705;55.592;37.460;2023-08-20T05:54:23;99414.63;;;21.82;100.00
58295;BME280;45705;55.592;37.460;2023-08-20T05:56:52;99409.47;;;22.18;100.00
58295;BME280;45705;55.592;37.460;2023-08-20T05:59:18;99403.53;;;22.19;100.00
58295;BME280;45705;55.592;37.460;2023-08-20T06:01:44;99401.03;;;22.45;100.00
58295;BME280;45705;55.592;37.460;2023-08-20T06:04:10;99404.44;;;22.68;100.00
58295;BME280;45705;55.592;37.460;2023-08-20T06:06:36;99404.81;;;23.26;100.00
58295;BME280;45705;55.592;37.460;2023-08-20T06:09:02;99410.78;;;25.27;98.29
58295;BME280;45705;55.592;37.460;2023-08-20T06:11:28;99401.00;;;25.82;88.83
58295;BME280;45705;55.592;37.460;2023-08-20T06:13:53;99400.13;;;26.06;85.43
58295;BME280;45705;55.592;37.460;2023-08-20T06:16:19;99396.81;;;26.22;84.27
58295;BME280;45705;55.592;37.460;2023-08-20T06:18:45;99405.78;;;25.81;88.16
58295;BME280;45705;55.592;37.460;2023-08-20T06:21:11;99401.22;;;25.21;90.94
58295;BME280;45705;55.592;37.460;2023-08-20T06:23:36;99409.97;;;25.08;92.83
58295;BME280;45705;55.592;37.460;2023-08-20T06:26:02;99404.47;;;24.65;96.66
58295;BME280;45705;55.592;37.460;2023-08-20T06:28:28;99400.47;;;24.45;99.42
58295;BME280;45705;55.592;37.460;2023-08-20T06:30:53;99400.44;;;25.13;95.93
58295;BME280;45705;55.592;37.460;2023-08-20T06:33:19;99396.09;;;24.94;96.91
58295;BME280;45705;55.592;37.460;2023-08-20T06:35:45;99398.06;;;25.19;92.22
58295;BME280;45705;55.592;37.460;2023-08-20T06:38:11;99393.28;;;25.23;91.33
58295;BME280;45705;55.592;37.460;2023-08-20T06:40:36;99397.25;;;25.36;90.62
58295;BME280;45705;55.592;37.460;2023-08-20T06:43:02;99393.78;;;26.02;84.83
58295;BME280;45705;55.592;37.460;2023-08-20T06:45:28;99395.16;;;26.32;82.61
58295;BME280;45705;55.592;37.460;2023-08-20T06:47:53;99387.59;;;27.23;78.13
58295;BME280;45705;55.592;37.460;2023-08-20T06:50:19;99388.47;;;27.54;74.91
58295;BME280;45705;55.592;37.460;2023-08-20T06:52:45;99392.16;;;27.78;72.86
58295;BME280;45705;55.592;37.460;2023-08-20T06:55:10;99394.88;;;28.13;72.98
58295;BME280;45705;55.592;37.460;2023-08-20T06:57:36;99386.38;;;28.47;70.35
58295;BME280;45705;55.592;37.460;2023-08-20T07:00:02;99385.66;;;27.85;73.43
58295;BME280;45705;55.592;37.460;2023-08-20T07:02:31;99395.56;;;28.20;74.90
58295;BME280;45705;55.592;37.460;2023-08-20T07:04:57;99382.69;;;28.26;71.89
58295;BME280;45705;55.592;37.460;2023-08-20T07:07:23;99394.56;;;27.76;73.05
58295;BME280;45705;55.592;37.460;2023-08-20T07:09:48;99393.41;;;27.39;76.07
58295;BME280;45705;55.592;37.460;2023-08-20T07:12:14;99389.56;;;26.36;85.65
58295;BME280;45705;55.592;37.460;2023-08-20T07:14:40;99381.91;;;25.84;90.98
58295;BME280;45705;55.592;37.460;2023-08-20T07:17:05;99388.63;;;26.53;85.87
58295;BME280;45705;55.592;37.460;2023-08-20T07:19:31;99383.44;;;25.96;87.76
58295;BME280;45705;55.592;37.460;2023-08-20T07:21:57;99378.19;;;26.68;83.22
58295;BME280;45705;55.592;37.460;2023-08-20T07:24:23;99370.00;;;26.91;79.27
58295;BME280;45705;55.592;37.460;2023-08-20T07:26:54;99372.22;;;27.07;78.45
58295;BME280;45705;55.592;37.460;2023-08-20T07:29:25;99379.59;;;26.87;80.38
58295;BME280;45705;55.592;37.460;2023-08-20T07:31:51;99361.06;;;27.07;79.71
58295;BME280;45705;55.592;37.460;2023-08-20T07:34:17;99371.53;;;26.96;78.20
58295;BME280;45705;55.592;37.460;2023-08-20T07:36:44;99377.63;;;27.60;74.64
58295;BME280;45705;55.592;37.460;2023-08-20T07:39:10;99376.06;;;27.24;74.50
58295;BME280;45705;55.592;37.460;2023-08-20T07:41:35;99377.81;;;27.45;74.50
58295;BME280;45705;55.592;37.460;2023-08-20T07:44:01;99356.88;;;27.23;73.90
58295;BME280;45705;55.592;37.460;2023-08-20T07:46:27;99366.47;;;27.22;71.91
58295;BME280;45705;55.592;37.460;2023-08-20T07:48:52;99378.72;;;26.97;73.98
58295;BME280;45705;55.592;37.460;2023-08-20T07:51:18;99374.56;;;27.13;74.80
58295;BME280;45705;55.592;37.460;2023-08-20T07:53:44;99369.38;;;26.69;77.93
58295;BME280;45705;55.592;37.460;2023-08-20T07:56:10;99365.66;;;27.25;74.66
58295;BME280;45705;55.592;37.460;2023-08-20T07:58:35;99364.22;;;27.09;75.31
58295;BME280;45705;55.592;37.460;2023-08-20T08:01:01;99370.22;;;26.66;79.55
58295;BME280;45705;55.592;37.460;2023-08-20T08:03:27;99360.53;;;26.82;77.75
58295;BME280;45705;55.592;37.460;2023-08-20T08:05:53;99355.84;;;26.71;78.41
58295;BME280;45705;55.592;37.460;2023-08-20T08:08:20;99356.88;;;26.40;80.21
58295;BME280;45705;55.592;37.460;2023-08-20T08:10:47;99357.91;;;26.08;83.64
58295;BME280;45705;55.592;37.460;2023-08-20T08:13:19;99355.19;;;26.53;80.88
58295;BME280;45705;55.592;37.460;2023-08-20T08:15:45;99350.13;;;26.86;79.70
58295;BME280;45705;55.592;37.460;2023-08-20T08:18:11;99340.84;;;26.51;79.83
58295;BME280;45705;55.592;37.460;2023-08-20T08:20:37;99333.97;;;26.14;82.01
58295;BME280;45705;55.592;37.460;2023-08-20T08:23:03;99331.66;;;26.05;83.68
58295;BME280;45705;55.592;37.460;2023-08-20T08:25:29;99328.31;;;26.25;82.55
58295;BME280;45705;55.592;37.460;2023-08-20T08:27:55;99332.78;;;26.15;81.92
58295;BME280;45705;55.592;37.460;2023-08-20T08:30:21;99330.03;;;26.11;82.03
58295;BME280;45705;55.592;37.460;2023-08-20T08:32:46;99318.94;;;26.01;83.12
58295;BME280;45705;55.592;37.460;2023-08-20T08:35:12;99316.69;;;25.78;85.59
58295;BME280;45705;55.592;37.460;2023-08-20T08:37:38;99313.75;;;26.03;84.72
58295;BME280;45705;55.592;37.460;2023-08-20T08:40:04;99309.59;;;25.66;85.79
58295;BME280;45705;55.592;37.460;2023-08-20T08:42:33;99312.66;;;25.82;85.81
58295;BME280;45705;55.592;37.460;2023-08-20T08:45:00;99315.13;;;25.73;87.64
58295;BME280;45705;55.592;37.460;2023-08-20T08:47:26;99317.16;;;25.65;87.17
58295;BME280;45705;55.592;37.460;2023-08-20T08:49:55;99313.59;;;25.61;86.32
58295;BME280;45705;55.592;37.460;2023-08-20T08:52:25;99309.13;;;25.78;85.65
58295;BME280;45705;55.592;37.460;2023-08-20T08:54:54;99305.16;;;25.79;86.20
58295;BME280;45705;55.592;37.460;2023-08-20T08:57:20;99314.22;;;25.90;84.59
58295;BME280;45705;55.592;37.460;2023-08-20T08:59:46;99322.81;;;26.18;83.04
58295;BME280;45705;55.592;37.460;2023-08-20T09:02:13;99322.13;;;25.99;86.05
58295;BME280;45705;55.592;37.460;2023-08-20T09:04:40;99329.16;;;26.18;86.89
58295;BME280;45705;55.592;37.460;2023-08-20T09:07:14;99324.16;;;26.47;80.39
58295;BME280;45705;55.592;37.460;2023-08-20T09:09:46;99330.59;;;26.41;82.02
58295;BME280;45705;55.592;37.460;2023-08-20T09:12:16;99335.28;;;26.51;72.91
58295;BME280;45705;55.592;37.460;2023-08-20T09:14:51;99332.16;;;26.42;75.67
58295;BME280;45705;55.592;37.460;2023-08-20T09:17:18;99320.22;;;26.41;78.52
58295;BME280;45705;55.592;37.460;2023-08-20T09:19:46;99314.34;;;26.28;81.31
58295;BME280;45705;55.592;37.460;2023-08-20T09:22:13;99310.81;;;26.24;81.30
58295;BME280;45705;55.592;37.460;2023-08-20T09:24:42;99309.28;;;26.16;76.77
58295;BME280;45705;55.592;37.460;2023-08-20T09:27:08;99304.69;;;25.91;76.55
58295;BME280;45705;55.592;37.460;2023-08-20T09:32:13;99298.47;;;26.25;69.80
58295;BME280;45705;55.592;37.460;2023-08-20T09:34:42;99294.00;;;26.35;71.40
58295;BME280;45705;55.592;37.460;2023-08-20T09:37:18;99299.69;;;26.17;73.33
58295;BME280;45705;55.592;37.460;2023-08-20T09:39:44;99297.63;;;26.28;71.42
58295;BME280;45705;55.592;37.460;2023-08-20T09:42:11;99291.81;;;26.12;69.79
58295;BME280;45705;55.592;37.460;2023-08-20T09:44:39;99284.19;;;26.16;68.59
58295;BME280;45705;55.592;37.460;2023-08-20T09:47:10;99274.84;;;26.41;69.09
58295;BME280;45705;55.592;37.460;2023-08-20T09:52:05;99276.59;;;26.65;68.00
58295;BME280;45705;55.592;37.460;2023-08-20T09:55:02;99276.16;;;26.70;67.59
58295;BME280;45705;55.592;37.460;2023-08-20T09:57:38;99279.38;;;26.65;67.36
58295;BME280;45705;55.592;37.460;2023-08-20T10:00:06;99285.81;;;26.62;68.33
58295;BME280;45705;55.592;37.460;2023-08-20T10:02:43;99277.63;;;26.41;70.38
58295;BME280;45705;55.592;37.460;2023-08-20T10:05:11;99270.59;;;26.67;68.71
58295;BME280;45705;55.592;37.460;2023-08-20T10:07:38;99275.22;;;26.81;69.80
58295;BME280;45705;55.592;37.460;2023-08-20T10:10:05;99271.22;;;26.85;69.32
58295;BME280;45705;55.592;37.460;2023-08-20T10:12:32;99282.63;;;26.60;71.20
58295;BME280;45705;55.592;37.460;2023-08-20T10:15:01;99273.25;;;26.81;69.69
58295;BME280;45705;55.592;37.460;2023-08-20T10:17:32;99268.75;;;26.91;69.00
58295;BME280;45705;55.592;37.460;2023-08-20T10:19:59;99270.28;;;26.96;68.62
58295;BME280;45705;55.592;37.460;2023-08-20T10:22:42;99269.88;;;26.97;69.41
58295;BME280;45705;55.592;37.460;2023-08-20T10:25:21;99256.75;;;26.94;67.56
58295;BME280;45705;55.592;37.460;2023-08-20T10:27:47;99256.44;;;26.85;69.15
58295;BME280;45705;55.592;37.460;2023-08-20T10:30:24;99257.13;;;26.96;68.43
58295;BME280;45705;55.592;37.460;2023-08-20T10:32:51;99241.78;;;27.11;68.06
58295;BME280;45705;55.592;37.460;2023-08-20T10:35:28;99238.84;;;26.91;70.70
58295;BME280;45705;55.592;37.460;2023-08-20T10:38:13;99237.44;;;27.10;69.58
58295;BME280;45705;55.592;37.460;2023-08-20T10:40:59;99235.72;;;26.86;69.44
58295;BME280;45705;55.592;37.460;2023-08-20T10:43:39;99235.22;;;26.95;69.25
58295;BME280;45705;55.592;37.460;2023-08-20T10:48:40;99229.59;;;26.98;69.56
58295;BME280;45705;55.592;37.460;2023-08-20T10:51:13;99232.13;;;26.89;70.46
58295;BME280;45705;55.592;37.460;2023-08-20T10:53:41;99227.28;;;26.93;68.38
58295;BME280;45705;55.592;37.460;2023-08-20T10:56:12;99227.34;;;26.86;68.52
58295;BME280;45705;55.592;37.460;2023-08-20T10:58:41;99227.16;;;27.00;68.75
58295;BME280;45705;55.592;37.460;2023-08-20T11:01:21;99231.78;;;26.83;70.32
58295;BME280;45705;55.592;37.460;2023-08-20T11:03:49;99233.94;;;26.68;70.70
58295;BME280;45705;55.592;37.460;2023-08-20T11:06:16;99232.56;;;26.84;70.56
58295;BME280;45705;55.592;37.460;2023-08-20T11:08:43;99221.97;;;26.71;71.37
58295;BME280;45705;55.592;37.460;2023-08-20T11:11:09;99227.66;;;26.57;72.73
58295;BME280;45705;55.592;37.460;2023-08-20T11:13:35;99224.81;;;26.64;72.46
58295;BME280;45705;55.592;37.460;2023-08-20T11:16:02;99220.66;;;26.42;73.24
58295;BME280;45705;55.592;37.460;2023-08-20T11:18:30;99220.47;;;26.60;72.52
58295;BME280;45705;55.592;37.460;2023-08-20T11:20:56;99219.06;;;26.41;73.67
58295;BME280;45705;55.592;37.460;2023-08-20T11:23:22;99201.97;;;26.39;74.04
58295;BME280;45705;55.592;37.460;2023-08-20T11:25:48;99198.97;;;26.19;75.72
58295;BME280;45705;55.592;37.460;2023-08-20T11:28:14;99199.78;;;26.19;76.74
58295;BME280;45705;55.592;37.460;2023-08-20T11:30:39;99192.97;;;26.24;76.32
58295;BME280;45705;55.592;37.460;2023-08-20T11:33:05;99197.88;;;26.09;78.12
58295;BME280;45705;55.592;37.460;2023-08-20T11:35:32;99202.09;;;25.79;79.35
58295;BME280;45705;55.592;37.460;2023-08-20T11:37:59;99232.56;;;25.45;83.38
58295;BME280;45705;55.592;37.460;2023-08-20T11:40:25;99236.44;;;24.73;76.62
58295;BME280;45705;55.592;37.460;2023-08-20T11:42:50;99247.25;;;24.14;76.13
58295;BME280;45705;55.592;37.460;2023-08-20T11:45:16;99248.41;;;23.81;77.04
58295;BME280;45705;55.592;37.460;2023-08-20T11:47:42;99245.59;;;23.55;77.74
58295;BME280;45705;55.592;37.460;2023-08-20T11:50:09;99247.84;;;23.10;82.59
58295;BME280;45705;55.592;37.460;2023-08-20T11:52:36;99254.19;;;22.45;89.84
58295;BME280;45705;55.592;37.460;2023-08-20T11:55:03;99245.91;;;22.00;97.74
58295;BME280;45705;55.592;37.460;2023-08-20T11:57:30;99252.97;;;21.49;100.00
58295;BME280;45705;55.592;37.460;2023-08-20T12:00:03;99232.44;;;20.82;100.00
58295;BME280;45705;55.592;37.460;2023-08-20T12:02:41;99225.97;;;21.05;100.00
58295;BME280;45705;55.592;37.460;2023-08-20T12:05:10;99225.19;;;20.74;100.00
58295;BME280;45705;55.592;37.460;2023-08-20T12:07:36;99231.66;;;20.85;100.00
58295;BME280;45705;55.592;37.460;2023-08-20T12:10:19;99225.13;;;20.67;100.00
58295;BME280;45705;55.592;37.460;2023-08-20T12:12:50;99221.19;;;20.68;100.00
58295;BME280;45705;55.592;37.460;2023-08-20T12:15:17;99219.25;;;20.72;100.00
58295;BME280;45705;55.592;37.460;2023-08-20T12:17:43;99203.97;;;20.78;100.00
58295;BME280;45705;55.592;37.460;2023-08-20T12:20:10;99209.81;;;20.46;100.00
58295;BME280;45705;55.592;37.460;2023-08-20T12:22:38;99212.81;;;20.61;100.00
58295;BME280;45705;55.592;37.460;2023-08-20T12:25:05;99219.88;;;20.89;100.00
58295;BME280;45705;55.592;37.460;2023-08-20T12:27:33;99213.88;;;21.17;100.00
58295;BME280;45705;55.592;37.460;2023-08-20T12:29:59;99207.03;;;21.41;100.00
58295;BME280;45705;55.592;37.460;2023-08-20T12:32:25;99216.69;;;21.54;100.00
58295;BME280;45705;55.592;37.460;2023-08-20T12:34:51;99215.97;;;21.65;100.00
58295;BME280;45705;55.592;37.460;2023-08-20T12:37:17;99210.44;;;21.65;100.00
58295;BME280;45705;55.592;37.460;2023-08-20T12:39:42;99204.28;;;21.86;100.00
58295;BME280;45705;55.592;37.460;2023-08-20T12:42:08;99211.06;;;21.92;100.00
58295;BME280;45705;55.592;37.460;2023-08-20T12:44:34;99208.00;;;21.59;100.00
58295;BME280;45705;55.592;37.460;2023-08-20T12:46:59;99200.75;;;21.85;100.00
58295;BME280;45705;55.592;37.460;2023-08-20T12:49:25;99207.66;;;22.13;100.00
58295;BME280;45705;55.592;37.460;2023-08-20T12:51:51;99198.31;;;22.28;100.00
58295;BME280;45705;55.592;37.460;2023-08-20T12:54:16;99187.22;;;22.28;100.00
58295;BME280;45705;55.592;37.460;2023-08-20T12:56:42;99212.69;;;22.52;100.00
58295;BME280;45705;55.592;37.460;2023-08-20T12:59:08;99207.91;;;22.49;100.00
58295;BME280;45705;55.592;37.460;2023-08-20T13:01:33;99207.91;;;22.49;100.00
58295;BME280;45705;55.592;37.460;2023-08-20T13:03:59;99206.75;;;22.50;100.00